Disclaimer

Please do not use the information listed here in-flight or in-navigation, as they are not provided to us by the airports but are provided by volunteers, so they might be outdated.

Search


Regions


Airport information page

No radio frequency information is available.

Airport informations:
Latitude: 14° 02' 49.90" N
Longitude: 083° 23' 12.20" W
Elevation: 69 feet - 21 meters
Operating hours: N/A
Operating agency: Military-civil joint use airport
Timezone: UTC-6
Fuel: N/A

Runway information:
09/27 - 8130 x 167 feet< - >2478 x 51 meters

Recent METARs:
MNPC 182300Z 03006KT 7000 SCT016 28/25 Q1010 HZ
MNPC 182300Z 03006KT 7000 SCT016 28/25 Q1010 HZ
MNPC 182300Z 03006KT 7000 SCT016 28/25 Q1010 HZ

Airport on the map: